LGD Airport (La Grande/Union County) Information

FAA: LGD - ICAO: KLGD

LGD Airport Location

State Oregon
County Union
City La Grande
LGD Airport is 4 miles southeast of La Grande, OR.
Latitude 45-17-22.3724N
Longitude 118-00-22.0464W
Elevation 2,717ft

KLGD Airport METARs

METAR KLGD 262356Z AUTO 18015G18KT 10SM SCT070 07/M02 A3023 RMK AO2 SLP244 60000 T00721022 10089 20061 55003
Altimeter 30.23"
Temperature 7.2°C (45.0°F)
Wind 180° at 15KT with gusts to 18KT
Clouds scattered at 7,000ft
Visibility 10.0mi
Time observed: 2021-11-26T23:56:00Z

LGD Airport Details

Status Operational
Activation March 1940
Ownership Public
Usage Public
Chart SEATTLE
ATC on-site No
Beacon schedule sunset-sunrise
Beacon color clear green

LGD Airport Contacts

Owner UNION COUNTY
Owner address 1106 K AVENUE, LA GRANDE, OR 97850
Owner phone 514-963-1016
Manager MILES HANCOCK
Manager address 59973 DOWNS RD, LAGRANDE, OR 97850
Manager phone 541-975-5418

LGD Airport (La Grande/Union County) Radio Frequencies

LGD (Airport) Radio Frequencies

UNICOM 122.8
Common traffic advisory frequency (CTAF) 122.8